sensor_id;sensor_type;location;lat;lon;timestamp;pressure;altitude;pressure_sealevel;temperature;humidity
60479;BME280;46321;48.398;11.754;2022-07-05T00:01:38;96829.66;;;18.70;87.22
60479;BME280;46321;48.398;11.754;2022-07-05T00:04:03;96833.59;;;18.67;87.29
60479;BME280;46321;48.398;11.754;2022-07-05T00:06:28;96821.25;;;18.66;87.50
60479;BME280;46321;48.398;11.754;2022-07-05T00:08:54;96822.66;;;18.69;87.27
60479;BME280;46321;48.398;11.754;2022-07-05T00:11:19;96825.72;;;18.72;86.64
60479;BME280;46321;48.398;11.754;2022-07-05T00:13:44;96817.28;;;18.69;87.24
60479;BME280;46321;48.398;11.754;2022-07-05T00:16:09;96814.00;;;18.67;87.16
60479;BME280;46321;48.398;11.754;2022-07-05T00:18:35;96812.84;;;18.56;87.37
60479;BME280;46321;48.398;11.754;2022-07-05T00:21:00;96808.09;;;18.58;87.51
60479;BME280;46321;48.398;11.754;2022-07-05T00:23:25;96811.38;;;18.60;87.54
60479;BME280;46321;48.398;11.754;2022-07-05T00:25:51;96806.47;;;18.57;87.21
60479;BME280;46321;48.398;11.754;2022-07-05T00:28:17;96802.13;;;18.56;87.61
60479;BME280;46321;48.398;11.754;2022-07-05T00:30:42;96808.69;;;18.60;87.17
60479;BME280;46321;48.398;11.754;2022-07-05T00:33:08;96807.84;;;18.66;86.94
60479;BME280;46321;48.398;11.754;2022-07-05T00:35:33;96803.72;;;18.63;86.77
60479;BME280;46321;48.398;11.754;2022-07-05T00:37:58;96799.03;;;18.59;86.82
60479;BME280;46321;48.398;11.754;2022-07-05T00:40:24;96793.44;;;18.60;86.24
60479;BME280;46321;48.398;11.754;2022-07-05T00:42:49;96796.81;;;18.49;87.41
60479;BME280;46321;48.398;11.754;2022-07-05T00:45:14;96803.38;;;18.53;87.10
60479;BME280;46321;48.398;11.754;2022-07-05T00:47:40;96797.22;;;18.52;86.97
60479;BME280;46321;48.398;11.754;2022-07-05T00:50:06;96796.22;;;18.47;87.09
60479;BME280;46321;48.398;11.754;2022-07-05T00:52:31;96795.16;;;18.54;86.89
60479;BME280;46321;48.398;11.754;2022-07-05T00:54:57;96789.44;;;18.44;87.41
60479;BME280;46321;48.398;11.754;2022-07-05T00:57:22;96790.28;;;18.45;87.47
60479;BME280;46321;48.398;11.754;2022-07-05T00:59:49;96791.28;;;18.50;87.26
60479;BME280;46321;48.398;11.754;2022-07-05T01:02:14;96790.81;;;18.53;87.19
60479;BME280;46321;48.398;11.754;2022-07-05T01:04:40;96794.59;;;18.46;87.39
60479;BME280;46321;48.398;11.754;2022-07-05T01:07:05;96789.44;;;18.44;87.48
60479;BME280;46321;48.398;11.754;2022-07-05T01:09:32;96799.41;;;18.37;88.37
60479;BME280;46321;48.398;11.754;2022-07-05T01:11:58;96793.59;;;18.40;87.58
60479;BME280;46321;48.398;11.754;2022-07-05T01:14:24;96797.34;;;18.39;87.35
60479;BME280;46321;48.398;11.754;2022-07-05T01:16:50;96790.91;;;18.40;87.16
60479;BME280;46321;48.398;11.754;2022-07-05T01:19:17;96792.59;;;18.41;87.20
60479;BME280;46321;48.398;11.754;2022-07-05T01:21:47;96793.88;;;18.31;87.42
60479;BME280;46321;48.398;11.754;2022-07-05T01:24:15;96784.91;;;18.19;87.66
60479;BME280;46321;48.398;11.754;2022-07-05T01:26:45;96786.25;;;18.28;86.82
60479;BME280;46321;48.398;11.754;2022-07-05T01:29:10;96780.72;;;18.30;86.69
60479;BME280;46321;48.398;11.754;2022-07-05T01:31:37;96784.41;;;18.29;86.72
60479;BME280;46321;48.398;11.754;2022-07-05T01:34:02;96780.97;;;18.22;87.09
60479;BME280;46321;48.398;11.754;2022-07-05T01:36:28;96784.25;;;18.24;87.16
60479;BME280;46321;48.398;11.754;2022-07-05T01:38:53;96786.31;;;18.22;87.13
60479;BME280;46321;48.398;11.754;2022-07-05T01:41:18;96776.06;;;18.18;87.31
60479;BME280;46321;48.398;11.754;2022-07-05T01:43:43;96777.28;;;18.16;87.49
60479;BME280;46321;48.398;11.754;2022-07-05T01:46:10;96786.19;;;18.10;87.27
60479;BME280;46321;48.398;11.754;2022-07-05T01:48:38;96785.94;;;18.11;87.65
60479;BME280;46321;48.398;11.754;2022-07-05T01:51:07;96787.66;;;18.05;87.71
60479;BME280;46321;48.398;11.754;2022-07-05T01:53:35;96785.72;;;18.13;87.06
60479;BME280;46321;48.398;11.754;2022-07-05T01:56:04;96779.16;;;18.08;87.44
60479;BME280;46321;48.398;11.754;2022-07-05T01:58:30;96784.78;;;18.00;87.85
60479;BME280;46321;48.398;11.754;2022-07-05T02:00:56;96784.75;;;18.07;87.47
60479;BME280;46321;48.398;11.754;2022-07-05T02:03:22;96788.91;;;18.03;87.06
60479;BME280;46321;48.398;11.754;2022-07-05T02:05:49;96784.53;;;18.08;86.78
60479;BME280;46321;48.398;11.754;2022-07-05T02:08:15;96786.63;;;18.00;87.22
60479;BME280;46321;48.398;11.754;2022-07-05T02:10:43;96794.06;;;17.97;87.26
60479;BME280;46321;48.398;11.754;2022-07-05T02:13:08;96791.00;;;17.94;87.01
60479;BME280;46321;48.398;11.754;2022-07-05T02:15:35;96793.50;;;17.89;87.31
60479;BME280;46321;48.398;11.754;2022-07-05T02:18:02;96793.50;;;17.89;87.05
60479;BME280;46321;48.398;11.754;2022-07-05T02:20:28;96794.72;;;17.93;87.22
60479;BME280;46321;48.398;11.754;2022-07-05T02:22:53;96791.88;;;17.88;86.91
60479;BME280;46321;48.398;11.754;2022-07-05T02:25:19;96790.19;;;17.93;86.82
60479;BME280;46321;48.398;11.754;2022-07-05T02:27:44;96799.91;;;17.88;87.06
60479;BME280;46321;48.398;11.754;2022-07-05T02:30:10;96805.09;;;17.82;87.19
60479;BME280;46321;48.398;11.754;2022-07-05T02:32:36;96802.22;;;17.77;87.79
60479;BME280;46321;48.398;11.754;2022-07-05T02:35:02;96807.56;;;17.77;87.29
60479;BME280;46321;48.398;11.754;2022-07-05T02:37:28;96805.72;;;17.78;87.98
60479;BME280;46321;48.398;11.754;2022-07-05T02:39:54;96809.59;;;17.82;87.59
60479;BME280;46321;48.398;11.754;2022-07-05T02:42:19;96820.53;;;17.80;87.27
60479;BME280;46321;48.398;11.754;2022-07-05T02:44:45;96816.66;;;17.76;87.54
60479;BME280;46321;48.398;11.754;2022-07-05T02:47:10;96814.59;;;17.78;87.58
60479;BME280;46321;48.398;11.754;2022-07-05T02:49:35;96805.09;;;17.82;87.11
60479;BME280;46321;48.398;11.754;2022-07-05T02:52:00;96810.88;;;17.72;87.51
60479;BME280;46321;48.398;11.754;2022-07-05T02:54:26;96816.06;;;17.67;87.91
60479;BME280;46321;48.398;11.754;2022-07-05T02:56:51;96816.47;;;17.71;87.71
60479;BME280;46321;48.398;11.754;2022-07-05T02:59:16;96816.88;;;17.68;87.33
60479;BME280;46321;48.398;11.754;2022-07-05T03:01:41;96822.03;;;17.69;87.40
60479;BME280;46321;48.398;11.754;2022-07-05T03:04:07;96810.91;;;17.66;87.49
60479;BME280;46321;48.398;11.754;2022-07-05T03:06:35;96822.63;;;17.71;87.09
60479;BME280;46321;48.398;11.754;2022-07-05T03:09:00;96817.94;;;17.60;87.54
60479;BME280;46321;48.398;11.754;2022-07-05T03:11:25;96818.16;;;17.65;87.36
60479;BME280;46321;48.398;11.754;2022-07-05T03:13:51;96822.22;;;17.68;87.45
60479;BME280;46321;48.398;11.754;2022-07-05T03:16:16;96822.06;;;17.62;87.42
60479;BME280;46321;48.398;11.754;2022-07-05T03:18:42;96823.09;;;17.61;87.60
60479;BME280;46321;48.398;11.754;2022-07-05T03:21:07;96829.47;;;17.60;87.36
60479;BME280;46321;48.398;11.754;2022-07-05T03:23:32;96827.84;;;17.53;87.98
60479;BME280;46321;48.398;11.754;2022-07-05T03:25:57;96833.41;;;17.58;87.77
60479;BME280;46321;48.398;11.754;2022-07-05T03:28:23;96821.88;;;17.57;87.38
60479;BME280;46321;48.398;11.754;2022-07-05T03:30:48;96830.94;;;17.56;87.33
60479;BME280;46321;48.398;11.754;2022-07-05T03:33:13;96832.97;;;17.54;87.63
60479;BME280;46321;48.398;11.754;2022-07-05T03:35:39;96826.63;;;17.48;88.10
60479;BME280;46321;48.398;11.754;2022-07-05T03:38:04;96829.94;;;17.44;88.14
60479;BME280;46321;48.398;11.754;2022-07-05T03:40:30;96837.13;;;17.43;88.22
60479;BME280;46321;48.398;11.754;2022-07-05T03:42:55;96833.44;;;17.44;88.51
60479;BME280;46321;48.398;11.754;2022-07-05T03:45:20;96832.81;;;17.49;88.37
60479;BME280;46321;48.398;11.754;2022-07-05T03:47:46;96826.41;;;17.50;88.39
60479;BME280;46321;48.398;11.754;2022-07-05T03:50:11;96832.63;;;17.44;88.30
60479;BME280;46321;48.398;11.754;2022-07-05T03:52:36;96819.63;;;17.47;88.41
60479;BME280;46321;48.398;11.754;2022-07-05T03:55:02;96827.50;;;17.42;88.64
60479;BME280;46321;48.398;11.754;2022-07-05T03:57:27;96824.97;;;17.47;88.20
60479;BME280;46321;48.398;11.754;2022-07-05T03:59:53;96831.56;;;17.51;87.72
60479;BME280;46321;48.398;11.754;2022-07-05T04:02:18;96837.31;;;17.55;87.54
60479;BME280;46321;48.398;11.754;2022-07-05T04:04:43;96833.63;;;17.56;87.66
60479;BME280;46321;48.398;11.754;2022-07-05T04:07:09;96837.31;;;17.55;87.59
60479;BME280;46321;48.398;11.754;2022-07-05T04:09:34;96835.66;;;17.54;87.42
60479;BME280;46321;48.398;11.754;2022-07-05T04:11:59;96841.84;;;17.55;87.73
60479;BME280;46321;48.398;11.754;2022-07-05T04:14:25;96839.38;;;17.53;87.60
60479;BME280;46321;48.398;11.754;2022-07-05T04:16:50;96841.84;;;17.55;87.77
60479;BME280;46321;48.398;11.754;2022-07-05T04:19:16;96837.31;;;17.55;87.48
60479;BME280;46321;48.398;11.754;2022-07-05T04:21:41;96841.66;;;17.56;87.43
60479;BME280;46321;48.398;11.754;2022-07-05T04:24:07;96840.59;;;17.57;87.07
60479;BME280;46321;48.398;11.754;2022-07-05T04:26:32;96838.59;;;17.46;87.55
60479;BME280;46321;48.398;11.754;2022-07-05T04:28:58;96837.94;;;17.50;87.57
60479;BME280;46321;48.398;11.754;2022-07-05T04:31:23;96840.41;;;17.52;87.24
60479;BME280;46321;48.398;11.754;2022-07-05T04:33:48;96835.47;;;17.56;87.00
60479;BME280;46321;48.398;11.754;2022-07-05T04:36:14;96835.25;;;17.57;86.99
60479;BME280;46321;48.398;11.754;2022-07-05T04:38:39;96844.72;;;17.60;86.50
60479;BME280;46321;48.398;11.754;2022-07-05T04:41:04;96847.38;;;17.60;86.70
60479;BME280;46321;48.398;11.754;2022-07-05T04:43:30;96854.81;;;17.58;86.50
60479;BME280;46321;48.398;11.754;2022-07-05T04:45:55;96852.34;;;17.56;87.01
60479;BME280;46321;48.398;11.754;2022-07-05T04:48:20;96853.00;;;17.51;86.58
60479;BME280;46321;48.398;11.754;2022-07-05T04:50:45;96854.41;;;17.54;86.59
60479;BME280;46321;48.398;11.754;2022-07-05T04:53:11;96856.66;;;17.57;86.33
60479;BME280;46321;48.398;11.754;2022-07-05T04:55:36;96857.50;;;17.58;86.31
60479;BME280;46321;48.398;11.754;2022-07-05T04:58:01;96852.75;;;17.53;86.57
60479;BME280;46321;48.398;11.754;2022-07-05T05:00:27;96859.53;;;17.62;86.08
60479;BME280;46321;48.398;11.754;2022-07-05T05:02:52;96857.47;;;17.65;86.00
60479;BME280;46321;48.398;11.754;2022-07-05T05:05:18;96851.69;;;17.61;86.73
60479;BME280;46321;48.398;11.754;2022-07-05T05:07:44;96854.53;;;17.73;86.78
60479;BME280;46321;48.398;11.754;2022-07-05T05:10:10;96854.50;;;17.80;86.18
60479;BME280;46321;48.398;11.754;2022-07-05T05:12:35;96853.66;;;17.86;86.27
60479;BME280;46321;48.398;11.754;2022-07-05T05:15:01;96857.69;;;18.02;85.53
60479;BME280;46321;48.398;11.754;2022-07-05T05:17:35;96856.81;;;18.15;84.95
60479;BME280;46321;48.398;11.754;2022-07-05T05:20:01;96858.03;;;18.19;84.91
60479;BME280;46321;48.398;11.754;2022-07-05T05:22:27;96856.09;;;18.34;84.08
60479;BME280;46321;48.398;11.754;2022-07-05T05:24:52;96861.81;;;18.44;84.15
60479;BME280;46321;48.398;11.754;2022-07-05T05:27:18;96856.63;;;18.49;83.61
60479;BME280;46321;48.398;11.754;2022-07-05T05:29:43;96852.22;;;18.55;83.23
60479;BME280;46321;48.398;11.754;2022-07-05T05:32:08;96858.97;;;18.64;83.31
60479;BME280;46321;48.398;11.754;2022-07-05T05:34:33;96850.00;;;18.77;83.38
60479;BME280;46321;48.398;11.754;2022-07-05T05:36:59;96864.94;;;18.92;83.24
60479;BME280;46321;48.398;11.754;2022-07-05T05:39:24;96861.75;;;19.02;82.09
60479;BME280;46321;48.398;11.754;2022-07-05T05:41:49;96856.31;;;19.09;80.89
60479;BME280;46321;48.398;11.754;2022-07-05T05:44:14;96859.38;;;19.19;81.42
60479;BME280;46321;48.398;11.754;2022-07-05T05:46:40;96866.22;;;19.34;80.47
60479;BME280;46321;48.398;11.754;2022-07-05T05:49:05;96870.91;;;19.39;80.17
60479;BME280;46321;48.398;11.754;2022-07-05T05:51:30;96870.78;;;19.52;80.75
60479;BME280;46321;48.398;11.754;2022-07-05T05:53:56;96872.44;;;19.53;79.93
60479;BME280;46321;48.398;11.754;2022-07-05T05:56:21;96868.53;;;19.68;78.89
60479;BME280;46321;48.398;11.754;2022-07-05T05:58:46;96863.31;;;19.73;79.38
60479;BME280;46321;48.398;11.754;2022-07-05T06:01:11;96859.88;;;19.85;78.81
60479;BME280;46321;48.398;11.754;2022-07-05T06:03:37;96863.78;;;20.01;78.20
60479;BME280;46321;48.398;11.754;2022-07-05T06:06:02;96872.66;;;20.01;77.53
60479;BME280;46321;48.398;11.754;2022-07-05T06:08:28;96872.16;;;20.11;77.19
60479;BME280;46321;48.398;11.754;2022-07-05T06:10:53;96871.84;;;20.20;76.25
60479;BME280;46321;48.398;11.754;2022-07-05T06:13:18;96871.50;;;20.28;75.63
60479;BME280;46321;48.398;11.754;2022-07-05T06:15:44;96873.75;;;20.31;75.92
60479;BME280;46321;48.398;11.754;2022-07-05T06:18:10;96875.66;;;20.43;74.68
60479;BME280;46321;48.398;11.754;2022-07-05T06:20:37;96879.38;;;20.42;73.27
60479;BME280;46321;48.398;11.754;2022-07-05T06:23:04;96880.47;;;20.53;72.88
60479;BME280;46321;48.398;11.754;2022-07-05T06:25:30;96880.22;;;20.54;73.23
60479;BME280;46321;48.398;11.754;2022-07-05T06:27:58;96873.72;;;20.62;72.39
60479;BME280;46321;48.398;11.754;2022-07-05T06:30:25;96881.91;;;20.79;72.89
60479;BME280;46321;48.398;11.754;2022-07-05T06:32:52;96883.78;;;20.91;72.74
60479;BME280;46321;48.398;11.754;2022-07-05T06:35:18;96893.78;;;21.02;71.22
60479;BME280;46321;48.398;11.754;2022-07-05T06:37:55;96884.06;;;21.13;70.04
60479;BME280;46321;48.398;11.754;2022-07-05T06:40:24;96892.84;;;21.21;70.11
60479;BME280;46321;48.398;11.754;2022-07-05T06:42:54;96901.28;;;21.36;71.72
60479;BME280;46321;48.398;11.754;2022-07-05T06:45:19;96895.78;;;21.43;68.57
60479;BME280;46321;48.398;11.754;2022-07-05T06:48:14;96903.03;;;21.55;68.17
60479;BME280;46321;48.398;11.754;2022-07-05T06:50:41;96902.75;;;21.68;69.48
60479;BME280;46321;48.398;11.754;2022-07-05T06:53:08;96907.91;;;21.82;66.97
60479;BME280;46321;48.398;11.754;2022-07-05T06:55:34;96904.34;;;21.93;67.73
60479;BME280;46321;48.398;11.754;2022-07-05T06:58:04;96898.13;;;22.05;67.45
60479;BME280;46321;48.398;11.754;2022-07-05T07:00:30;96889.31;;;22.10;64.80
60479;BME280;46321;48.398;11.754;2022-07-05T07:02:57;96897.84;;;22.18;63.45
60479;BME280;46321;48.398;11.754;2022-07-05T07:05:22;96895.91;;;22.31;61.92
60479;BME280;46321;48.398;11.754;2022-07-05T07:07:47;96899.50;;;22.37;61.44
60479;BME280;46321;48.398;11.754;2022-07-05T07:10:31;96900.25;;;22.49;62.74
60479;BME280;46321;48.398;11.754;2022-07-05T07:12:57;96898.75;;;22.53;60.16
60479;BME280;46321;48.398;11.754;2022-07-05T07:15:23;96910.91;;;22.56;58.29
60479;BME280;46321;48.398;11.754;2022-07-05T07:17:48;96907.06;;;22.52;57.22
60479;BME280;46321;48.398;11.754;2022-07-05T07:20:13;96909.19;;;22.50;55.94
60479;BME280;46321;48.398;11.754;2022-07-05T07:22:38;96908.78;;;22.58;56.98
60479;BME280;46321;48.398;11.754;2022-07-05T07:25:04;96906.56;;;22.55;54.28
60479;BME280;46321;48.398;11.754;2022-07-05T07:27:45;96917.22;;;22.62;56.11
60479;BME280;46321;48.398;11.754;2022-07-05T07:30:12;96914.31;;;22.81;55.45
60479;BME280;46321;48.398;11.754;2022-07-05T07:32:38;96913.25;;;22.99;56.54
60479;BME280;46321;48.398;11.754;2022-07-05T07:35:04;96910.38;;;23.06;56.44
60479;BME280;46321;48.398;11.754;2022-07-05T07:37:30;96915.28;;;23.26;57.86
60479;BME280;46321;48.398;11.754;2022-07-05T07:39:55;96913.38;;;23.44;55.42
60479;BME280;46321;48.398;11.754;2022-07-05T07:42:20;96908.38;;;23.70;55.55
60479;BME280;46321;48.398;11.754;2022-07-05T07:44:45;96905.59;;;23.87;55.25
60479;BME280;46321;48.398;11.754;2022-07-05T07:47:11;96912.59;;;24.11;54.66
60479;BME280;46321;48.398;11.754;2022-07-05T07:49:36;96912.66;;;24.39;53.89
60479;BME280;46321;48.398;11.754;2022-07-05T07:52:03;96909.97;;;24.66;53.30
60479;BME280;46321;48.398;11.754;2022-07-05T07:54:28;96907.63;;;24.80;52.70
60479;BME280;46321;48.398;11.754;2022-07-05T07:56:53;96909.03;;;25.21;52.92
60479;BME280;46321;48.398;11.754;2022-07-05T07:59:19;96910.47;;;25.34;52.20
60479;BME280;46321;48.398;11.754;2022-07-05T08:01:44;96916.53;;;25.47;51.82
60479;BME280;46321;48.398;11.754;2022-07-05T08:04:09;96908.44;;;25.57;49.71
60479;BME280;46321;48.398;11.754;2022-07-05T08:06:35;96912.63;;;25.76;48.75
60479;BME280;46321;48.398;11.754;2022-07-05T08:09:00;96919.72;;;25.82;47.83
60479;BME280;46321;48.398;11.754;2022-07-05T08:11:25;96914.06;;;25.99;47.17
60479;BME280;46321;48.398;11.754;2022-07-05T08:13:50;96913.63;;;26.23;47.34
60479;BME280;46321;48.398;11.754;2022-07-05T08:16:16;96916.69;;;26.48;46.38
60479;BME280;46321;48.398;11.754;2022-07-05T08:18:41;96913.97;;;26.58;44.40
60479;BME280;46321;48.398;11.754;2022-07-05T08:21:25;96909.09;;;26.86;45.06
60479;BME280;46321;48.398;11.754;2022-07-05T08:24:02;96906.13;;;26.83;43.80
60479;BME280;46321;48.398;11.754;2022-07-05T08:26:28;96915.63;;;26.96;43.98
60479;BME280;46321;48.398;11.754;2022-07-05T08:28:53;96913.47;;;27.03;43.75
60479;BME280;46321;48.398;11.754;2022-07-05T08:31:19;96912.09;;;27.11;43.40
60479;BME280;46321;48.398;11.754;2022-07-05T08:33:45;96912.13;;;27.21;42.95
60479;BME280;46321;48.398;11.754;2022-07-05T08:36:10;96904.47;;;27.34;42.71
60479;BME280;46321;48.398;11.754;2022-07-05T08:38:36;96916.44;;;27.33;41.65
60479;BME280;46321;48.398;11.754;2022-07-05T08:41:01;96916.72;;;27.42;41.91
60479;BME280;46321;48.398;11.754;2022-07-05T08:43:28;96910.38;;;27.62;41.23
60479;BME280;46321;48.398;11.754;2022-07-05T08:45:55;96919.00;;;27.96;42.00
60479;BME280;46321;48.398;11.754;2022-07-05T08:48:23;96911.03;;;28.15;41.04
60479;BME280;46321;48.398;11.754;2022-07-05T08:50:50;96912.06;;;28.24;41.43
60479;BME280;46321;48.398;11.754;2022-07-05T08:53:18;96913.06;;;28.44;39.96
60479;BME280;46321;48.398;11.754;2022-07-05T08:55:45;96915.19;;;28.48;40.41
60479;BME280;46321;48.398;11.754;2022-07-05T08:58:11;96913.88;;;28.40;40.51
60479;BME280;46321;48.398;11.754;2022-07-05T09:00:37;96909.19;;;28.91;39.72
60479;BME280;46321;48.398;11.754;2022-07-05T09:03:03;96909.59;;;29.03;36.30
60479;BME280;46321;48.398;11.754;2022-07-05T09:05:29;96916.00;;;28.88;35.42
60479;BME280;46321;48.398;11.754;2022-07-05T09:07:59;96917.25;;;29.01;36.66
60479;BME280;46321;48.398;11.754;2022-07-05T09:10:30;96906.63;;;28.70;35.17
60479;BME280;46321;48.398;11.754;2022-07-05T09:12:57;96910.50;;;29.29;35.67
60479;BME280;46321;48.398;11.754;2022-07-05T09:15:23;96906.84;;;29.68;35.40
60479;BME280;46321;48.398;11.754;2022-07-05T09:17:49;96911.66;;;29.77;33.77
60479;BME280;46321;48.398;11.754;2022-07-05T09:20:16;96915.22;;;29.77;32.22
60479;BME280;46321;48.398;11.754;2022-07-05T09:30:34;96908.03;;;31.03;28.95
60479;BME280;46321;48.398;11.754;2022-07-05T09:33:00;96910.41;;;30.90;29.33
60479;BME280;46321;48.398;11.754;2022-07-05T09:35:32;96901.81;;;31.45;29.87
60479;BME280;46321;48.398;11.754;2022-07-05T09:37:58;96914.72;;;31.58;29.13
60479;BME280;46321;48.398;11.754;2022-07-05T09:40:24;96900.50;;;31.84;28.36
60479;BME280;46321;48.398;11.754;2022-07-05T09:42:50;96904.88;;;31.85;28.04
60479;BME280;46321;48.398;11.754;2022-07-05T09:45:22;96907.28;;;32.15;28.17
60479;BME280;46321;48.398;11.754;2022-07-05T09:47:48;96898.06;;;32.11;27.39
60479;BME280;46321;48.398;11.754;2022-07-05T09:50:14;96902.81;;;32.19;25.81
60479;BME280;46321;48.398;11.754;2022-07-05T09:52:41;96896.56;;;32.42;26.15
60479;BME280;46321;48.398;11.754;2022-07-05T09:57:40;96903.28;;;32.73;25.65
60479;BME280;46321;48.398;11.754;2022-07-05T10:00:09;96902.25;;;31.94;26.41
60479;BME280;46321;48.398;11.754;2022-07-05T10:02:49;96908.50;;;32.23;27.44
60479;BME280;46321;48.398;11.754;2022-07-05T10:07:49;96903.66;;;31.49;24.58
60479;BME280;46321;48.398;11.754;2022-07-05T10:10:17;96895.75;;;31.90;24.99
60479;BME280;46321;48.398;11.754;2022-07-05T10:12:44;96905.38;;;31.59;24.82
60479;BME280;46321;48.398;11.754;2022-07-05T10:15:13;96913.34;;;31.27;26.32
60479;BME280;46321;48.398;11.754;2022-07-05T10:17:50;96905.25;;;31.93;24.22
60479;BME280;46321;48.398;11.754;2022-07-05T10:20:41;96901.03;;;31.86;25.06
60479;BME280;46321;48.398;11.754;2022-07-05T10:23:15;96898.41;;;31.67;24.94
60479;BME280;46321;48.398;11.754;2022-07-05T10:25:44;96908.44;;;31.58;26.66
60479;BME280;46321;48.398;11.754;2022-07-05T10:28:12;96906.72;;;31.90;25.13
60479;BME280;46321;48.398;11.754;2022-07-05T10:30:38;96913.56;;;32.02;24.06
60479;BME280;46321;48.398;11.754;2022-07-05T10:33:06;96905.03;;;31.33;24.00
60479;BME280;46321;48.398;11.754;2022-07-05T10:35:33;96912.41;;;31.18;24.14
60479;BME280;46321;48.398;11.754;2022-07-05T10:37:59;96907.22;;;31.02;24.61
60479;BME280;46321;48.398;11.754;2022-07-05T10:40:26;96918.00;;;30.93;24.01
60479;BME280;46321;48.398;11.754;2022-07-05T10:42:58;96915.22;;;30.60;26.07
60479;BME280;46321;48.398;11.754;2022-07-05T10:48:15;96905.78;;;30.52;24.67
60479;BME280;46321;48.398;11.754;2022-07-05T10:50:57;96903.88;;;30.33;25.14
60479;BME280;46321;48.398;11.754;2022-07-05T10:53:28;96901.28;;;30.42;25.87
60479;BME280;46321;48.398;11.754;2022-07-05T10:56:14;96909.03;;;30.54;26.73
60479;BME280;46321;48.398;11.754;2022-07-05T10:58:48;96900.56;;;30.56;28.08
60479;BME280;46321;48.398;11.754;2022-07-05T11:06:29;96900.53;;;30.17;26.11
60479;BME280;46321;48.398;11.754;2022-07-05T11:11:25;96902.56;;;30.31;26.58
60479;BME280;46321;48.398;11.754;2022-07-05T11:13:51;96901.41;;;30.12;27.56
60479;BME280;46321;48.398;11.754;2022-07-05T11:16:35;96893.06;;;29.54;24.87
60479;BME280;46321;48.398;11.754;2022-07-05T11:19:12;96892.25;;;29.54;27.14
60479;BME280;46321;48.398;11.754;2022-07-05T11:22:01;96887.97;;;29.47;28.27
60479;BME280;46321;48.398;11.754;2022-07-05T11:24:28;96885.16;;;29.53;28.83
60479;BME280;46321;48.398;11.754;2022-07-05T11:27:03;96892.09;;;29.45;27.52
60479;BME280;46321;48.398;11.754;2022-07-05T11:29:44;96887.47;;;29.15;28.59
60479;BME280;46321;48.398;11.754;2022-07-05T11:32:12;96881.28;;;29.10;28.07
60479;BME280;46321;48.398;11.754;2022-07-05T11:34:42;96882.34;;;29.09;28.67
60479;BME280;46321;48.398;11.754;2022-07-05T11:39:41;96883.81;;;28.96;30.09
60479;BME280;46321;48.398;11.754;2022-07-05T11:42:10;96879.09;;;29.07;30.51
60479;BME280;46321;48.398;11.754;2022-07-05T11:44:36;96876.63;;;29.10;31.72
60479;BME280;46321;48.398;11.754;2022-07-05T11:47:05;96883.84;;;29.25;31.26
60479;BME280;46321;48.398;11.754;2022-07-05T11:49:31;96879.38;;;29.35;30.81
60479;BME280;46321;48.398;11.754;2022-07-05T11:51:58;96877.22;;;29.32;31.29
60479;BME280;46321;48.398;11.754;2022-07-05T11:54:25;96877.91;;;29.18;29.94
60479;BME280;46321;48.398;11.754;2022-07-05T11:56:50;96890.22;;;29.10;29.25
60479;BME280;46321;48.398;11.754;2022-07-05T11:59:18;96879.19;;;28.96;30.39
60479;BME280;46321;48.398;11.754;2022-07-05T12:01:44;96883.81;;;28.96;28.67
60479;BME280;46321;48.398;11.754;2022-07-05T12:04:09;96865.91;;;28.89;27.99
60479;BME280;46321;48.398;11.754;2022-07-05T12:06:41;96862.97;;;28.80;28.85
60479;BME280;46321;48.398;11.754;2022-07-05T12:09:06;96869.44;;;28.90;26.94
60479;BME280;46321;48.398;11.754;2022-07-05T12:11:31;96855.38;;;28.37;28.48
60479;BME280;46321;48.398;11.754;2022-07-05T12:14:20;96865.53;;;28.26;29.92
60479;BME280;46321;48.398;11.754;2022-07-05T12:16:46;96872.63;;;28.22;29.99
60479;BME280;46321;48.398;11.754;2022-07-05T12:19:11;96876.19;;;28.17;30.63
60479;BME280;46321;48.398;11.754;2022-07-05T12:21:36;96871.91;;;28.06;31.19
60479;BME280;46321;48.398;11.754;2022-07-05T12:24:02;96869.47;;;28.04;30.51
60479;BME280;46321;48.398;11.754;2022-07-05T12:26:27;96877.13;;;27.92;29.76
60479;BME280;46321;48.398;11.754;2022-07-05T12:28:53;96871.13;;;27.95;30.58
60479;BME280;46321;48.398;11.754;2022-07-05T12:31:23;96874.19;;;27.83;30.45
60479;BME280;46321;48.398;11.754;2022-07-05T12:33:50;96871.44;;;27.88;31.90
60479;BME280;46321;48.398;11.754;2022-07-05T12:36:17;96858.63;;;27.94;31.30
60479;BME280;46321;48.398;11.754;2022-07-05T12:38:44;96857.63;;;27.79;31.46
60479;BME280;46321;48.398;11.754;2022-07-05T12:41:09;96867.97;;;27.77;29.90
60479;BME280;46321;48.398;11.754;2022-07-05T12:43:51;96866.66;;;27.53;30.29
60479;BME280;46321;48.398;11.754;2022-07-05T12:46:17;96866.91;;;27.57;31.00
60479;BME280;46321;48.398;11.754;2022-07-05T12:48:43;96864.75;;;27.59;32.38
60479;BME280;46321;48.398;11.754;2022-07-05T12:51:09;96867.41;;;27.75;30.20
60479;BME280;46321;48.398;11.754;2022-07-05T12:53:44;96861.97;;;27.75;30.01
60479;BME280;46321;48.398;11.754;2022-07-05T12:56:28;96865.84;;;27.53;28.85
60479;BME280;46321;48.398;11.754;2022-07-05T12:59:12;96868.28;;;27.54;29.57
60479;BME280;46321;48.398;11.754;2022-07-05T13:01:42;96866.88;;;27.62;29.86
60479;BME280;46321;48.398;11.754;2022-07-05T13:04:13;96860.34;;;27.69;30.66
60479;BME280;46321;48.398;11.754;2022-07-05T13:06:52;96864.16;;;27.62;29.49
60479;BME280;46321;48.398;11.754;2022-07-05T13:14:43;96847.59;;;27.59;28.79
60479;BME280;46321;48.398;11.754;2022-07-05T13:17:10;96859.84;;;27.61;28.75
60479;BME280;46321;48.398;11.754;2022-07-05T13:19:36;96862.56;;;27.61;28.53
60479;BME280;46321;48.398;11.754;2022-07-05T13:22:02;96851.66;;;27.66;29.09